sensor_id;sensor_type;location;lat;lon;timestamp;P1;durP1;ratioP1;P2;durP2;ratioP2
78670;SDS011;68277;52.724;6.516;2024-01-16T00:00:14;2.25;;;0.82;;
78670;SDS011;68277;52.724;6.516;2024-01-16T00:02:40;0.20;;;0.20;;
78670;SDS011;68277;52.724;6.516;2024-01-16T00:05:06;1.13;;;0.38;;
78670;SDS011;68277;52.724;6.516;2024-01-16T00:07:31;0.40;;;0.40;;
78670;SDS011;68277;52.724;6.516;2024-01-16T00:12:33;0.10;;;0.10;;
78670;SDS011;68277;52.724;6.516;2024-01-16T00:15:02;0.22;;;0.13;;
78670;SDS011;68277;52.724;6.516;2024-01-16T00:17:28;0.10;;;0.10;;
78670;SDS011;68277;52.724;6.516;2024-01-16T00:19:53;0.65;;;0.52;;
78670;SDS011;68277;52.724;6.516;2024-01-16T00:22:19;0.08;;;0.08;;
78670;SDS011;68277;52.724;6.516;2024-01-16T00:24:45;0.25;;;0.25;;
78670;SDS011;68277;52.724;6.516;2024-01-16T00:27:10;3.42;;;0.85;;
78670;SDS011;68277;52.724;6.516;2024-01-16T00:29:36;0.30;;;0.30;;
78670;SDS011;68277;52.724;6.516;2024-01-16T00:32:03;0.73;;;0.47;;
78670;SDS011;68277;52.724;6.516;2024-01-16T00:34:29;0.20;;;0.20;;
78670;SDS011;68277;52.724;6.516;2024-01-16T00:36:54;0.82;;;0.73;;
78670;SDS011;68277;52.724;6.516;2024-01-16T00:39:20;0.60;;;0.60;;
78670;SDS011;68277;52.724;6.516;2024-01-16T00:41:45;6.03;;;0.65;;
78670;SDS011;68277;52.724;6.516;2024-01-16T00:44:11;1.00;;;1.00;;
78670;SDS011;68277;52.724;6.516;2024-01-16T00:46:37;0.63;;;0.35;;
78670;SDS011;68277;52.724;6.516;2024-01-16T00:49:02;0.20;;;0.20;;
78670;SDS011;68277;52.724;6.516;2024-01-16T00:51:28;0.10;;;0.10;;
78670;SDS011;68277;52.724;6.516;2024-01-16T00:53:53;0.32;;;0.22;;
78670;SDS011;68277;52.724;6.516;2024-01-16T00:56:19;0.30;;;0.30;;
78670;SDS011;68277;52.724;6.516;2024-01-16T00:58:44;0.10;;;0.10;;
78670;SDS011;68277;52.724;6.516;2024-01-16T01:01:10;0.30;;;0.30;;
78670;SDS011;68277;52.724;6.516;2024-01-16T01:03:35;2.55;;;0.43;;
78670;SDS011;68277;52.724;6.516;2024-01-16T01:06:01;0.35;;;0.35;;
78670;SDS011;68277;52.724;6.516;2024-01-16T01:08:26;0.10;;;0.10;;
78670;SDS011;68277;52.724;6.516;2024-01-16T01:10:52;0.52;;;0.52;;
78670;SDS011;68277;52.724;6.516;2024-01-16T01:13:17;1.13;;;0.38;;
78670;SDS011;68277;52.724;6.516;2024-01-16T01:15:43;20.48;;;1.15;;
78670;SDS011;68277;52.724;6.516;2024-01-16T01:18:09;0.15;;;0.15;;
78670;SDS011;68277;52.724;6.516;2024-01-16T01:20:34;6.32;;;0.30;;
78670;SDS011;68277;52.724;6.516;2024-01-16T01:23:00;0.28;;;0.28;;
78670;SDS011;68277;52.724;6.516;2024-01-16T01:25:25;12.85;;;0.68;;
78670;SDS011;68277;52.724;6.516;2024-01-16T01:27:52;0.65;;;0.65;;
78670;SDS011;68277;52.724;6.516;2024-01-16T01:30:17;0.00;;;0.00;;
78670;SDS011;68277;52.724;6.516;2024-01-16T01:32:43;0.20;;;0.20;;
78670;SDS011;68277;52.724;6.516;2024-01-16T01:35:09;0.30;;;0.30;;
78670;SDS011;68277;52.724;6.516;2024-01-16T01:37:35;0.30;;;0.30;;
78670;SDS011;68277;52.724;6.516;2024-01-16T01:40:01;0.10;;;0.10;;
78670;SDS011;68277;52.724;6.516;2024-01-16T01:42:26;0.10;;;0.10;;
78670;SDS011;68277;52.724;6.516;2024-01-16T01:44:52;0.10;;;0.10;;
78670;SDS011;68277;52.724;6.516;2024-01-16T01:47:17;0.10;;;0.10;;
78670;SDS011;68277;52.724;6.516;2024-01-16T01:49:43;1.55;;;1.42;;
78670;SDS011;68277;52.724;6.516;2024-01-16T01:52:09;0.73;;;0.73;;
78670;SDS011;68277;52.724;6.516;2024-01-16T01:54:35;6.10;;;0.93;;
78670;SDS011;68277;52.724;6.516;2024-01-16T01:57:02;0.35;;;0.28;;
78670;SDS011;68277;52.724;6.516;2024-01-16T01:59:31;0.30;;;0.30;;
78670;SDS011;68277;52.724;6.516;2024-01-16T02:01:58;0.32;;;0.32;;
78670;SDS011;68277;52.724;6.516;2024-01-16T02:04:24;0.08;;;0.08;;
78670;SDS011;68277;52.724;6.516;2024-01-16T02:06:51;0.00;;;0.00;;
78670;SDS011;68277;52.724;6.516;2024-01-16T02:09:20;0.20;;;0.20;;
78670;SDS011;68277;52.724;6.516;2024-01-16T02:11:46;0.32;;;0.15;;
78670;SDS011;68277;52.724;6.516;2024-01-16T02:14:11;0.28;;;0.28;;
78670;SDS011;68277;52.724;6.516;2024-01-16T02:16:41;0.55;;;0.55;;
78670;SDS011;68277;52.724;6.516;2024-01-16T02:22:00;0.75;;;0.73;;
78670;SDS011;68277;52.724;6.516;2024-01-16T02:24:32;0.25;;;0.25;;
78670;SDS011;68277;52.724;6.516;2024-01-16T02:26:58;0.10;;;0.10;;
78670;SDS011;68277;52.724;6.516;2024-01-16T02:29:23;1.08;;;0.30;;
78670;SDS011;68277;52.724;6.516;2024-01-16T02:31:49;0.90;;;0.70;;
78670;SDS011;68277;52.724;6.516;2024-01-16T02:34:15;1.02;;;1.00;;
78670;SDS011;68277;52.724;6.516;2024-01-16T02:36:40;0.00;;;0.00;;
78670;SDS011;68277;52.724;6.516;2024-01-16T02:39:05;0.85;;;0.60;;
78670;SDS011;68277;52.724;6.516;2024-01-16T02:41:31;1.13;;;1.05;;
78670;SDS011;68277;52.724;6.516;2024-01-16T02:43:57;6.55;;;0.68;;
78670;SDS011;68277;52.724;6.516;2024-01-16T02:46:22;1.35;;;0.52;;
78670;SDS011;68277;52.724;6.516;2024-01-16T02:48:48;0.10;;;0.10;;
78670;SDS011;68277;52.724;6.516;2024-01-16T02:51:13;0.25;;;0.25;;
78670;SDS011;68277;52.724;6.516;2024-01-16T02:53:40;0.77;;;0.55;;
78670;SDS011;68277;52.724;6.516;2024-01-16T02:56:07;0.10;;;0.10;;
78670;SDS011;68277;52.724;6.516;2024-01-16T02:58:33;0.20;;;0.20;;
78670;SDS011;68277;52.724;6.516;2024-01-16T03:00:58;0.10;;;0.10;;
78670;SDS011;68277;52.724;6.516;2024-01-16T03:03:26;0.10;;;0.10;;
78670;SDS011;68277;52.724;6.516;2024-01-16T03:05:52;5.68;;;0.32;;
78670;SDS011;68277;52.724;6.516;2024-01-16T03:08:18;4.90;;;0.93;;
78670;SDS011;68277;52.724;6.516;2024-01-16T03:10:44;0.90;;;0.82;;
78670;SDS011;68277;52.724;6.516;2024-01-16T03:13:10;11.35;;;1.17;;
78670;SDS011;68277;52.724;6.516;2024-01-16T03:15:35;0.10;;;0.10;;
78670;SDS011;68277;52.724;6.516;2024-01-16T03:18:01;5.38;;;0.30;;
78670;SDS011;68277;52.724;6.516;2024-01-16T03:20:27;0.63;;;0.13;;
78670;SDS011;68277;52.724;6.516;2024-01-16T03:22:53;0.55;;;0.50;;
78670;SDS011;68277;52.724;6.516;2024-01-16T03:25:19;0.38;;;0.22;;
78670;SDS011;68277;52.724;6.516;2024-01-16T03:27:45;0.20;;;0.20;;
78670;SDS011;68277;52.724;6.516;2024-01-16T03:30:10;0.13;;;0.13;;
78670;SDS011;68277;52.724;6.516;2024-01-16T03:32:37;0.82;;;0.45;;
78670;SDS011;68277;52.724;6.516;2024-01-16T03:35:03;0.10;;;0.10;;
78670;SDS011;68277;52.724;6.516;2024-01-16T03:37:29;0.40;;;0.40;;
78670;SDS011;68277;52.724;6.516;2024-01-16T03:39:55;0.22;;;0.20;;
78670;SDS011;68277;52.724;6.516;2024-01-16T03:42:20;0.30;;;0.30;;
78670;SDS011;68277;52.724;6.516;2024-01-16T03:44:46;0.10;;;0.10;;
78670;SDS011;68277;52.724;6.516;2024-01-16T03:47:12;0.32;;;0.32;;
78670;SDS011;68277;52.724;6.516;2024-01-16T03:49:38;0.20;;;0.20;;
78670;SDS011;68277;52.724;6.516;2024-01-16T03:52:03;1.45;;;0.60;;
78670;SDS011;68277;52.724;6.516;2024-01-16T03:54:29;0.22;;;0.22;;
78670;SDS011;68277;52.724;6.516;2024-01-16T03:56:55;0.20;;;0.20;;
78670;SDS011;68277;52.724;6.516;2024-01-16T03:59:20;0.00;;;0.00;;
78670;SDS011;68277;52.724;6.516;2024-01-16T04:01:46;0.20;;;0.20;;
78670;SDS011;68277;52.724;6.516;2024-01-16T04:04:13;1.48;;;1.38;;
78670;SDS011;68277;52.724;6.516;2024-01-16T04:06:38;0.75;;;0.75;;
78670;SDS011;68277;52.724;6.516;2024-01-16T04:09:04;0.28;;;0.28;;
78670;SDS011;68277;52.724;6.516;2024-01-16T04:11:30;0.20;;;0.20;;
78670;SDS011;68277;52.724;6.516;2024-01-16T04:13:56;37.42;;;1.13;;
78670;SDS011;68277;52.724;6.516;2024-01-16T04:16:21;0.30;;;0.20;;
78670;SDS011;68277;52.724;6.516;2024-01-16T04:18:47;4.57;;;0.40;;
78670;SDS011;68277;52.724;6.516;2024-01-16T04:21:13;1.05;;;0.95;;
78670;SDS011;68277;52.724;6.516;2024-01-16T04:23:38;0.88;;;0.88;;
78670;SDS011;68277;52.724;6.516;2024-01-16T04:26:04;0.30;;;0.30;;
78670;SDS011;68277;52.724;6.516;2024-01-16T04:28:30;9.10;;;1.40;;
78670;SDS011;68277;52.724;6.516;2024-01-16T04:30:55;1.40;;;0.55;;
78670;SDS011;68277;52.724;6.516;2024-01-16T04:33:21;0.10;;;0.10;;
78670;SDS011;68277;52.724;6.516;2024-01-16T04:35:47;0.47;;;0.43;;
78670;SDS011;68277;52.724;6.516;2024-01-16T04:38:12;0.30;;;0.30;;
78670;SDS011;68277;52.724;6.516;2024-01-16T04:40:38;4.05;;;0.60;;
78670;SDS011;68277;52.724;6.516;2024-01-16T04:43:08;0.20;;;0.20;;
78670;SDS011;68277;52.724;6.516;2024-01-16T04:45:34;0.50;;;0.50;;
78670;SDS011;68277;52.724;6.516;2024-01-16T04:48:00;0.10;;;0.10;;
78670;SDS011;68277;52.724;6.516;2024-01-16T04:50:25;1.52;;;0.75;;
78670;SDS011;68277;52.724;6.516;2024-01-16T04:52:56;0.25;;;0.25;;
78670;SDS011;68277;52.724;6.516;2024-01-16T04:55:25;7.22;;;0.57;;
78670;SDS011;68277;52.724;6.516;2024-01-16T04:57:53;1.50;;;0.38;;
78670;SDS011;68277;52.724;6.516;2024-01-16T05:00:19;1.08;;;0.90;;
78670;SDS011;68277;52.724;6.516;2024-01-16T05:02:45;3.50;;;1.58;;
78670;SDS011;68277;52.724;6.516;2024-01-16T05:05:11;1.08;;;0.77;;
78670;SDS011;68277;52.724;6.516;2024-01-16T05:07:37;1.77;;;0.80;;
78670;SDS011;68277;52.724;6.516;2024-01-16T05:10:03;3.67;;;0.65;;
78670;SDS011;68277;52.724;6.516;2024-01-16T05:12:29;1.58;;;1.48;;
78670;SDS011;68277;52.724;6.516;2024-01-16T05:14:55;2.88;;;0.93;;
78670;SDS011;68277;52.724;6.516;2024-01-16T05:17:20;1.23;;;0.80;;
78670;SDS011;68277;52.724;6.516;2024-01-16T05:19:46;6.57;;;1.73;;
78670;SDS011;68277;52.724;6.516;2024-01-16T05:22:11;1.48;;;1.38;;
78670;SDS011;68277;52.724;6.516;2024-01-16T05:27:50;14.98;;;6.80;;
78670;SDS011;68277;52.724;6.516;2024-01-16T05:30:15;9.35;;;1.23;;
78670;SDS011;68277;52.724;6.516;2024-01-16T05:32:41;2.50;;;1.05;;
78670;SDS011;68277;52.724;6.516;2024-01-16T05:35:07;16.92;;;2.03;;
78670;SDS011;68277;52.724;6.516;2024-01-16T05:37:34;4.75;;;2.50;;
78670;SDS011;68277;52.724;6.516;2024-01-16T05:40:01;3.60;;;2.28;;
78670;SDS011;68277;52.724;6.516;2024-01-16T05:44:54;0.40;;;0.38;;
78670;SDS011;68277;52.724;6.516;2024-01-16T05:47:20;2.10;;;1.95;;
78670;SDS011;68277;52.724;6.516;2024-01-16T05:49:46;2.50;;;2.33;;
78670;SDS011;68277;52.724;6.516;2024-01-16T05:52:11;0.77;;;0.35;;
78670;SDS011;68277;52.724;6.516;2024-01-16T05:54:37;2.08;;;1.63;;
78670;SDS011;68277;52.724;6.516;2024-01-16T05:57:02;3.28;;;1.27;;
78670;SDS011;68277;52.724;6.516;2024-01-16T05:59:28;0.50;;;0.50;;
78670;SDS011;68277;52.724;6.516;2024-01-16T06:01:54;0.10;;;0.10;;
78670;SDS011;68277;52.724;6.516;2024-01-16T06:04:20;0.13;;;0.13;;
78670;SDS011;68277;52.724;6.516;2024-01-16T06:06:45;0.95;;;0.50;;
78670;SDS011;68277;52.724;6.516;2024-01-16T06:09:12;4.38;;;0.70;;
78670;SDS011;68277;52.724;6.516;2024-01-16T06:11:39;4.55;;;1.05;;
78670;SDS011;68277;52.724;6.516;2024-01-16T06:14:08;0.45;;;0.45;;
78670;SDS011;68277;52.724;6.516;2024-01-16T06:16:35;2.70;;;0.47;;
78670;SDS011;68277;52.724;6.516;2024-01-16T06:19:01;1.35;;;1.15;;
78670;SDS011;68277;52.724;6.516;2024-01-16T06:21:27;2.53;;;0.52;;
78670;SDS011;68277;52.724;6.516;2024-01-16T06:23:52;1.42;;;0.95;;
78670;SDS011;68277;52.724;6.516;2024-01-16T06:26:18;0.45;;;0.45;;
78670;SDS011;68277;52.724;6.516;2024-01-16T06:28:44;0.22;;;0.22;;
78670;SDS011;68277;52.724;6.516;2024-01-16T06:31:10;1.60;;;0.73;;
78670;SDS011;68277;52.724;6.516;2024-01-16T06:33:37;1.23;;;1.13;;
78670;SDS011;68277;52.724;6.516;2024-01-16T06:36:03;1.02;;;0.77;;
78670;SDS011;68277;52.724;6.516;2024-01-16T06:38:30;2.60;;;1.30;;
78670;SDS011;68277;52.724;6.516;2024-01-16T06:40:56;2.55;;;1.20;;
78670;SDS011;68277;52.724;6.516;2024-01-16T06:43:23;5.22;;;1.02;;
78670;SDS011;68277;52.724;6.516;2024-01-16T06:45:53;10.80;;;1.10;;
78670;SDS011;68277;52.724;6.516;2024-01-16T06:48:19;1.30;;;1.05;;
78670;SDS011;68277;52.724;6.516;2024-01-16T06:50:45;3.17;;;0.85;;
78670;SDS011;68277;52.724;6.516;2024-01-16T06:53:10;6.10;;;0.82;;
78670;SDS011;68277;52.724;6.516;2024-01-16T06:55:36;1.00;;;0.90;;
78670;SDS011;68277;52.724;6.516;2024-01-16T06:58:04;5.40;;;2.28;;
78670;SDS011;68277;52.724;6.516;2024-01-16T07:00:30;2.45;;;0.75;;
78670;SDS011;68277;52.724;6.516;2024-01-16T07:02:56;0.60;;;0.60;;
78670;SDS011;68277;52.724;6.516;2024-01-16T07:05:23;16.58;;;2.50;;
78670;SDS011;68277;52.724;6.516;2024-01-16T07:07:49;2.08;;;1.15;;
78670;SDS011;68277;52.724;6.516;2024-01-16T07:10:14;5.78;;;1.23;;
78670;SDS011;68277;52.724;6.516;2024-01-16T07:12:43;3.00;;;0.98;;
78670;SDS011;68277;52.724;6.516;2024-01-16T07:15:10;1.30;;;1.10;;
78670;SDS011;68277;52.724;6.516;2024-01-16T07:17:36;1.58;;;1.48;;
78670;SDS011;68277;52.724;6.516;2024-01-16T07:20:01;11.60;;;2.17;;
78670;SDS011;68277;52.724;6.516;2024-01-16T07:22:27;2.17;;;0.93;;
78670;SDS011;68277;52.724;6.516;2024-01-16T07:24:53;1.95;;;1.05;;
78670;SDS011;68277;52.724;6.516;2024-01-16T07:27:19;1.35;;;1.05;;
78670;SDS011;68277;52.724;6.516;2024-01-16T07:29:44;0.95;;;0.90;;
78670;SDS011;68277;52.724;6.516;2024-01-16T07:32:10;1.05;;;0.57;;
78670;SDS011;68277;52.724;6.516;2024-01-16T07:34:36;7.60;;;1.45;;
78670;SDS011;68277;52.724;6.516;2024-01-16T07:37:01;2.83;;;1.65;;
78670;SDS011;68277;52.724;6.516;2024-01-16T07:39:27;1.00;;;0.98;;
78670;SDS011;68277;52.724;6.516;2024-01-16T07:41:52;1.35;;;1.10;;
78670;SDS011;68277;52.724;6.516;2024-01-16T07:44:18;1.63;;;1.45;;
78670;SDS011;68277;52.724;6.516;2024-01-16T07:46:44;4.72;;;2.42;;
78670;SDS011;68277;52.724;6.516;2024-01-16T07:49:10;0.90;;;0.77;;
78670;SDS011;68277;52.724;6.516;2024-01-16T07:51:35;0.98;;;0.90;;
78670;SDS011;68277;52.724;6.516;2024-01-16T07:54:05;4.85;;;1.33;;
78670;SDS011;68277;52.724;6.516;2024-01-16T07:56:32;2.22;;;1.48;;
78670;SDS011;68277;52.724;6.516;2024-01-16T07:58:59;1.42;;;1.05;;
78670;SDS011;68277;52.724;6.516;2024-01-16T08:01:24;1.15;;;1.08;;
78670;SDS011;68277;52.724;6.516;2024-01-16T08:03:50;2.72;;;1.75;;
78670;SDS011;68277;52.724;6.516;2024-01-16T08:06:16;1.40;;;1.30;;
78670;SDS011;68277;52.724;6.516;2024-01-16T08:08:42;2.10;;;1.75;;
78670;SDS011;68277;52.724;6.516;2024-01-16T08:11:09;3.10;;;1.27;;
78670;SDS011;68277;52.724;6.516;2024-01-16T08:13:34;1.90;;;1.58;;
78670;SDS011;68277;52.724;6.516;2024-01-16T08:16:00;3.53;;;1.17;;
78670;SDS011;68277;52.724;6.516;2024-01-16T08:18:26;2.25;;;1.35;;
78670;SDS011;68277;52.724;6.516;2024-01-16T08:20:51;8.93;;;1.48;;
78670;SDS011;68277;52.724;6.516;2024-01-16T08:23:17;1.70;;;1.60;;
78670;SDS011;68277;52.724;6.516;2024-01-16T08:25:43;2.80;;;1.98;;
78670;SDS011;68277;52.724;6.516;2024-01-16T08:28:08;3.45;;;1.50;;
78670;SDS011;68277;52.724;6.516;2024-01-16T08:30:35;2.42;;;2.25;;
78670;SDS011;68277;52.724;6.516;2024-01-16T08:33:00;4.07;;;2.10;;
78670;SDS011;68277;52.724;6.516;2024-01-16T08:35:26;1.92;;;1.45;;
78670;SDS011;68277;52.724;6.516;2024-01-16T08:37:51;4.72;;;1.30;;
78670;SDS011;68277;52.724;6.516;2024-01-16T08:40:17;0.85;;;0.85;;
78670;SDS011;68277;52.724;6.516;2024-01-16T08:42:42;3.78;;;1.38;;
78670;SDS011;68277;52.724;6.516;2024-01-16T08:45:08;2.45;;;1.55;;
78670;SDS011;68277;52.724;6.516;2024-01-16T08:47:34;3.00;;;1.38;;
78670;SDS011;68277;52.724;6.516;2024-01-16T08:50:15;1.73;;;1.23;;
78670;SDS011;68277;52.724;6.516;2024-01-16T08:52:41;3.25;;;2.95;;
78670;SDS011;68277;52.724;6.516;2024-01-16T08:55:07;3.10;;;1.63;;
78670;SDS011;68277;52.724;6.516;2024-01-16T08:57:36;2.17;;;1.13;;
78670;SDS011;68277;52.724;6.516;2024-01-16T09:00:03;2.40;;;1.67;;
78670;SDS011;68277;52.724;6.516;2024-01-16T09:02:33;2.10;;;1.90;;
78670;SDS011;68277;52.724;6.516;2024-01-16T09:05:00;4.05;;;2.97;;
78670;SDS011;68277;52.724;6.516;2024-01-16T09:07:26;12.45;;;2.05;;
78670;SDS011;68277;52.724;6.516;2024-01-16T09:09:52;3.70;;;1.75;;
78670;SDS011;68277;52.724;6.516;2024-01-16T09:12:17;2.42;;;1.67;;
78670;SDS011;68277;52.724;6.516;2024-01-16T09:14:43;2.53;;;1.98;;
78670;SDS011;68277;52.724;6.516;2024-01-16T09:17:08;2.13;;;1.90;;
78670;SDS011;68277;52.724;6.516;2024-01-16T09:19:34;2.72;;;2.17;;
78670;SDS011;68277;52.724;6.516;2024-01-16T09:22:00;4.68;;;1.73;;
78670;SDS011;68277;52.724;6.516;2024-01-16T09:24:25;6.47;;;1.67;;
78670;SDS011;68277;52.724;6.516;2024-01-16T09:26:51;2.33;;;1.85;;
78670;SDS011;68277;52.724;6.516;2024-01-16T09:29:16;5.18;;;1.88;;
78670;SDS011;68277;52.724;6.516;2024-01-16T09:31:42;3.30;;;1.90;;
78670;SDS011;68277;52.724;6.516;2024-01-16T09:34:10;5.05;;;1.52;;
78670;SDS011;68277;52.724;6.516;2024-01-16T09:36:38;3.50;;;2.28;;
78670;SDS011;68277;52.724;6.516;2024-01-16T09:39:06;3.08;;;1.63;;
78670;SDS011;68277;52.724;6.516;2024-01-16T09:41:41;2.45;;;1.55;;
78670;SDS011;68277;52.724;6.516;2024-01-16T09:44:07;3.38;;;2.05;;
78670;SDS011;68277;52.724;6.516;2024-01-16T09:46:34;2.60;;;2.35;;
78670;SDS011;68277;52.724;6.516;2024-01-16T09:49:03;4.13;;;2.22;;
78670;SDS011;68277;52.724;6.516;2024-01-16T09:51:28;2.47;;;1.77;;
78670;SDS011;68277;52.724;6.516;2024-01-16T09:53:54;9.43;;;1.67;;
78670;SDS011;68277;52.724;6.516;2024-01-16T09:56:22;1.35;;;1.25;;
78670;SDS011;68277;52.724;6.516;2024-01-16T09:58:57;1.10;;;0.82;;
78670;SDS011;68277;52.724;6.516;2024-01-16T10:01:29;3.13;;;1.05;;
78670;SDS011;68277;52.724;6.516;2024-01-16T10:04:03;4.00;;;2.92;;
78670;SDS011;68277;52.724;6.516;2024-01-16T10:06:29;1.80;;;1.08;;
78670;SDS011;68277;52.724;6.516;2024-01-16T10:08:58;4.78;;;1.95;;
78670;SDS011;68277;52.724;6.516;2024-01-16T10:11:24;0.90;;;0.88;;
78670;SDS011;68277;52.724;6.516;2024-01-16T10:13:50;3.25;;;1.42;;
78670;SDS011;68277;52.724;6.516;2024-01-16T10:16:15;1.63;;;0.82;;
78670;SDS011;68277;52.724;6.516;2024-01-16T10:18:41;2.83;;;1.27;;
78670;SDS011;68277;52.724;6.516;2024-01-16T10:21:21;1.52;;;1.15;;
78670;SDS011;68277;52.724;6.516;2024-01-16T10:23:47;1.85;;;1.42;;
78670;SDS011;68277;52.724;6.516;2024-01-16T10:26:14;8.38;;;1.35;;
78670;SDS011;68277;52.724;6.516;2024-01-16T10:28:40;1.42;;;1.27;;
78670;SDS011;68277;52.724;6.516;2024-01-16T10:31:08;1.15;;;0.93;;
78670;SDS011;68277;52.724;6.516;2024-01-16T10:33:36;0.35;;;0.22;;
78670;SDS011;68277;52.724;6.516;2024-01-16T10:36:12;0.90;;;0.55;;
78670;SDS011;68277;52.724;6.516;2024-01-16T10:38:39;1.10;;;0.85;;
78670;SDS011;68277;52.724;6.516;2024-01-16T10:41:13;2.88;;;1.08;;
78670;SDS011;68277;52.724;6.516;2024-01-16T10:43:42;0.60;;;0.60;;
78670;SDS011;68277;52.724;6.516;2024-01-16T10:46:13;2.75;;;1.13;;
78670;SDS011;68277;52.724;6.516;2024-01-16T10:48:59;0.93;;;0.55;;
78670;SDS011;68277;52.724;6.516;2024-01-16T10:51:26;1.75;;;1.10;;
78670;SDS011;68277;52.724;6.516;2024-01-16T10:54:03;0.57;;;0.57;;
78670;SDS011;68277;52.724;6.516;2024-01-16T10:56:34;0.43;;;0.40;;
78670;SDS011;68277;52.724;6.516;2024-01-16T10:59:06;2.97;;;1.20;;
78670;SDS011;68277;52.724;6.516;2024-01-16T11:01:43;0.32;;;0.32;;
78670;SDS011;68277;52.724;6.516;2024-01-16T11:04:12;0.68;;;0.50;;
78670;SDS011;68277;52.724;6.516;2024-01-16T11:06:38;3.13;;;0.90;;
78670;SDS011;68277;52.724;6.516;2024-01-16T11:09:05;3.00;;;0.88;;
78670;SDS011;68277;52.724;6.516;2024-01-16T11:11:33;1.08;;;1.00;;
78670;SDS011;68277;52.724;6.516;2024-01-16T11:14:01;0.80;;;0.80;;
78670;SDS011;68277;52.724;6.516;2024-01-16T11:16:28;1.25;;;1.15;;
78670;SDS011;68277;52.724;6.516;2024-01-16T11:18:57;1.30;;;1.00;;
78670;SDS011;68277;52.724;6.516;2024-01-16T11:21:23;1.25;;;1.00;;
78670;SDS011;68277;52.724;6.516;2024-01-16T11:23:49;1.20;;;1.10;;
78670;SDS011;68277;52.724;6.516;2024-01-16T11:28:53;0.75;;;0.70;;
78670;SDS011;68277;52.724;6.516;2024-01-16T11:31:36;2.03;;;1.52;;
78670;SDS011;68277;52.724;6.516;2024-01-16T11:34:02;11.20;;;2.22;;
78670;SDS011;68277;52.724;6.516;2024-01-16T11:39:19;5.60;;;1.98;;
78670;SDS011;68277;52.724;6.516;2024-01-16T11:41:49;7.95;;;1.52;;
78670;SDS011;68277;52.724;6.516;2024-01-16T11:47:21;5.80;;;2.30;;
78670;SDS011;68277;52.724;6.516;2024-01-16T11:52:15;1.77;;;1.20;;
78670;SDS011;68277;52.724;6.516;2024-01-16T11:55:00;3.17;;;2.30;;
78670;SDS011;68277;52.724;6.516;2024-01-16T11:57:26;8.90;;;2.50;;
78670;SDS011;68277;52.724;6.516;2024-01-16T12:00:19;5.28;;;3.22;;
78670;SDS011;68277;52.724;6.516;2024-01-16T12:02:55;14.85;;;7.68;;
78670;SDS011;68277;52.724;6.516;2024-01-16T12:05:21;19.35;;;11.13;;
78670;SDS011;68277;52.724;6.516;2024-01-16T12:07:51;30.70;;;7.05;;
78670;SDS011;68277;52.724;6.516;2024-01-16T12:10:22;40.47;;;14.07;;
78670;SDS011;68277;52.724;6.516;2024-01-16T12:12:49;14.02;;;5.78;;
78670;SDS011;68277;52.724;6.516;2024-01-16T12:15:19;14.75;;;7.10;;
78670;SDS011;68277;52.724;6.516;2024-01-16T12:17:52;22.38;;;10.48;;
78670;SDS011;68277;52.724;6.516;2024-01-16T12:20:19;16.30;;;4.07;;
78670;SDS011;68277;52.724;6.516;2024-01-16T12:22:52;7.55;;;4.53;;
78670;SDS011;68277;52.724;6.516;2024-01-16T12:25:21;15.90;;;6.45;;
78670;SDS011;68277;52.724;6.516;2024-01-16T12:27:57;10.68;;;6.93;;
78670;SDS011;68277;52.724;6.516;2024-01-16T12:30:24;5.10;;;3.55;;
78670;SDS011;68277;52.724;6.516;2024-01-16T12:33:08;6.32;;;3.28;;
78670;SDS011;68277;52.724;6.516;2024-01-16T12:35:37;7.65;;;3.25;;
78670;SDS011;68277;52.724;6.516;2024-01-16T12:38:05;4.30;;;2.78;;
78670;SDS011;68277;52.724;6.516;2024-01-16T12:40:34;5.20;;;3.03;;
78670;SDS011;68277;52.724;6.516;2024-01-16T12:43:01;4.57;;;2.72;;
78670;SDS011;68277;52.724;6.516;2024-01-16T12:45:28;3.95;;;2.80;;
78670;SDS011;68277;52.724;6.516;2024-01-16T12:47:54;4.78;;;2.65;;
78670;SDS011;68277;52.724;6.516;2024-01-16T12:50:24;4.05;;;2.58;;
78670;SDS011;68277;52.724;6.516;2024-01-16T12:55:29;3.38;;;2.00;;
78670;SDS011;68277;52.724;6.516;2024-01-16T13:00:45;5.65;;;2.95;;
78670;SDS011;68277;52.724;6.516;2024-01-16T13:03:15;3.13;;;1.77;;
78670;SDS011;68277;52.724;6.516;2024-01-16T13:05:58;3.35;;;1.77;;
78670;SDS011;68277;52.724;6.516;2024-01-16T13:08:25;3.85;;;1.95;;
78670;SDS011;68277;52.724;6.516;2024-01-16T13:11:01;2.00;;;1.65;;
78670;SDS011;68277;52.724;6.516;2024-01-16T13:13:31;2.35;;;2.15;;
78670;SDS011;68277;52.724;6.516;2024-01-16T13:15:58;2.97;;;2.55;;
78670;SDS011;68277;52.724;6.516;2024-01-16T13:18:24;4.28;;;2.13;;
78670;SDS011;68277;52.724;6.516;2024-01-16T13:20:52;3.55;;;2.63;;
78670;SDS011;68277;52.724;6.516;2024-01-16T13:23:18;3.95;;;1.92;;
78670;SDS011;68277;52.724;6.516;2024-01-16T13:25:45;3.10;;;2.28;;
78670;SDS011;68277;52.724;6.516;2024-01-16T13:28:14;2.75;;;1.88;;
78670;SDS011;68277;52.724;6.516;2024-01-16T13:30:41;5.65;;;1.77;;
78670;SDS011;68277;52.724;6.516;2024-01-16T13:33:07;1.33;;;1.10;;
78670;SDS011;68277;52.724;6.516;2024-01-16T13:35:42;7.85;;;3.38;;
78670;SDS011;68277;52.724;6.516;2024-01-16T13:38:10;3.55;;;1.73;;
78670;SDS011;68277;52.724;6.516;2024-01-16T13:40:37;2.40;;;1.90;;
78670;SDS011;68277;52.724;6.516;2024-01-16T13:43:02;1.40;;;1.17;;
78670;SDS011;68277;52.724;6.516;2024-01-16T13:45:29;1.65;;;1.55;;
78670;SDS011;68277;52.724;6.516;2024-01-16T13:48:14;1.13;;;0.70;;
78670;SDS011;68277;52.724;6.516;2024-01-16T13:50:41;2.70;;;1.38;;
78670;SDS011;68277;52.724;6.516;2024-01-16T13:53:07;4.93;;;1.67;;
78670;SDS011;68277;52.724;6.516;2024-01-16T13:55:33;1.02;;;0.93;;
78670;SDS011;68277;52.724;6.516;2024-01-16T13:57:58;1.30;;;1.08;;
78670;SDS011;68277;52.724;6.516;2024-01-16T14:00:24;1.05;;;0.85;;
78670;SDS011;68277;52.724;6.516;2024-01-16T14:02:50;0.47;;;0.47;;
78670;SDS011;68277;52.724;6.516;2024-01-16T14:05:17;0.65;;;0.65;;
78670;SDS011;68277;52.724;6.516;2024-01-16T14:07:44;2.35;;;0.90;;
78670;SDS011;68277;52.724;6.516;2024-01-16T14:10:13;3.28;;;1.38;;
78670;SDS011;68277;52.724;6.516;2024-01-16T14:12:40;1.02;;;0.90;;
78670;SDS011;68277;52.724;6.516;2024-01-16T14:15:13;0.98;;;0.60;;
78670;SDS011;68277;52.724;6.516;2024-01-16T14:17:49;1.10;;;0.90;;
78670;SDS011;68277;52.724;6.516;2024-01-16T14:20:16;2.13;;;1.20;;
78670;SDS011;68277;52.724;6.516;2024-01-16T14:22:43;5.93;;;0.98;;
78670;SDS011;68277;52.724;6.516;2024-01-16T14:25:09;2.65;;;1.23;;
78670;SDS011;68277;52.724;6.516;2024-01-16T14:30:10;0.63;;;0.63;;
78670;SDS011;68277;52.724;6.516;2024-01-16T14:32:40;0.40;;;0.40;;
78670;SDS011;68277;52.724;6.516;2024-01-16T14:35:07;5.22;;;0.70;;
78670;SDS011;68277;52.724;6.516;2024-01-16T14:37:34;0.50;;;0.40;;
78670;SDS011;68277;52.724;6.516;2024-01-16T14:40:02;1.27;;;0.80;;
78670;SDS011;68277;52.724;6.516;2024-01-16T14:42:40;1.30;;;0.88;;
78670;SDS011;68277;52.724;6.516;2024-01-16T14:45:08;2.03;;;0.98;;
78670;SDS011;68277;52.724;6.516;2024-01-16T14:47:34;0.52;;;0.43;;
78670;SDS011;68277;52.724;6.516;2024-01-16T14:50:00;1.02;;;0.70;;
78670;SDS011;68277;52.724;6.516;2024-01-16T14:52:25;2.13;;;1.08;;
78670;SDS011;68277;52.724;6.516;2024-01-16T14:54:51;2.22;;;1.38;;
78670;SDS011;68277;52.724;6.516;2024-01-16T14:57:17;6.38;;;1.48;;
78670;SDS011;68277;52.724;6.516;2024-01-16T14:59:43;0.80;;;0.40;;
78670;SDS011;68277;52.724;6.516;2024-01-16T15:02:10;1.27;;;1.15;;
78670;SDS011;68277;52.724;6.516;2024-01-16T15:04:39;1.13;;;0.47;;
78670;SDS011;68277;52.724;6.516;2024-01-16T15:07:06;5.45;;;1.98;;
78670;SDS011;68277;52.724;6.516;2024-01-16T15:09:33;0.80;;;0.60;;
78670;SDS011;68277;52.724;6.516;2024-01-16T15:12:06;1.33;;;0.50;;
78670;SDS011;68277;52.724;6.516;2024-01-16T15:17:23;0.85;;;0.50;;
78670;SDS011;68277;52.724;6.516;2024-01-16T15:19:49;9.40;;;1.15;;